Time;durP1;ratioP1;P1;durP2;ratioP2;P2;SDS_P1;SDS_P2;PMS_P1;PMS_P2;Temp;Humidity;BMP_temperature;BMP_pressure;BME280_temperature;BME280_humidity;BME280_pressure;Samples;Min_cycle;Max_cycle;Signal;HPM_P1;HPM_P2
2021/07/17 00:02:03;;;;;;;5.75;3.20;;;;;;;18.73;66.37;97249.84;5015036;28;20022;-63
2021/07/17 00:04:29;;;;;;;5.60;3.10;;;;;;;18.67;66.66;97245.13;5015235;28;20466;-64
2021/07/17 00:06:55;;;;;;;3.38;2.58;;;;;;;18.74;66.55;97243.38;5013567;28;20471;-64
2021/07/17 00:09:20;;;;;;;4.82;2.80;;;;;;;18.73;65.81;97241.66;5013783;28;20077;-64
2021/07/17 00:11:46;;;;;;;7.45;3.00;;;;;;;18.74;66.54;97236.03;4997413;28;20022;-64
2021/07/17 00:14:12;;;;;;;5.57;2.90;;;;;;;18.68;66.26;97234.03;5014827;28;20471;-63
2021/07/17 00:16:37;;;;;;;3.83;2.70;;;;;;;18.71;66.20;97241.84;5013564;28;20088;-64
2021/07/17 00:19:04;;;;;;;5.07;2.78;;;;;;;18.73;66.42;97238.94;5013618;28;20525;-64
2021/07/17 00:21:29;;;;;;;6.72;2.90;;;;;;;18.64;66.57;97240.88;5014816;28;20038;-65
2021/07/17 00:23:55;;;;;;;6.38;3.10;;;;;;;18.71;66.69;97238.28;5014705;28;20061;-64
2021/07/17 00:26:20;;;;;;;6.28;2.95;;;;;;;18.64;66.86;97240.88;5013701;28;20029;-64
2021/07/17 00:28:45;;;;;;;5.03;2.88;;;;;;;18.53;67.36;97233.94;5014845;28;20093;-64
2021/07/17 00:31:11;;;;;;;8.07;3.08;;;;;;;18.58;67.36;97241.56;5014320;28;20100;-64
2021/07/17 00:33:37;;;;;;;6.20;2.90;;;;;;;18.50;67.69;97231.53;5014371;28;20037;-64
2021/07/17 00:36:02;;;;;;;4.72;2.92;;;;;;;18.46;68.07;97234.81;5014360;28;20490;-64
2021/07/17 00:38:27;;;;;;;5.38;2.78;;;;;;;18.36;68.77;97232.31;5014628;28;20049;-64
2021/07/17 00:40:53;;;;;;;4.47;2.90;;;;;;;18.36;68.62;97233.16;5014525;28;20478;-64
2021/07/17 00:43:18;;;;;;;4.88;3.03;;;;;;;18.35;68.83;97234.16;5012976;28;20029;-64
2021/07/17 00:45:44;;;;;;;5.88;2.90;;;;;;;18.39;68.86;97240.94;5012949;28;20486;-64
2021/07/17 00:48:09;;;;;;;5.45;2.60;;;;;;;18.33;69.39;97233.50;5012969;28;20029;-64
2021/07/17 00:50:34;;;;;;;4.35;2.75;;;;;;;18.28;69.60;97230.44;5014019;28;20030;-64
2021/07/17 00:53:00;;;;;;;5.28;2.72;;;;;;;18.23;69.99;97220.06;5012894;28;20034;-64
2021/07/17 00:55:27;;;;;;;4.88;2.60;;;;;;;18.19;69.44;97221.44;5014369;28;20036;-64
2021/07/17 00:57:53;;;;;;;5.05;2.70;;;;;;;18.04;70.12;97221.31;4996304;28;20129;-64
2021/07/17 01:00:18;;;;;;;6.60;2.63;;;;;;;17.87;70.82;97217.75;5012675;28;20112;-64
2021/07/17 01:02:47;;;;;;;4.15;2.63;;;;;;;17.89;70.97;97217.56;5013024;28;20030;-64
2021/07/17 01:05:14;;;;;;;5.53;2.72;;;;;;;17.99;70.85;97217.44;5012685;28;20534;-65
2021/07/17 01:07:40;;;;;;;5.25;2.60;;;;;;;17.91;71.14;97218.25;5012700;28;20381;-65
2021/07/17 01:10:09;;;;;;;4.30;2.58;;;;;;;17.87;71.44;97217.75;5012555;28;20030;-65
2021/07/17 01:12:35;;;;;;;4.43;2.70;;;;;;;18.03;70.88;97219.63;5012592;28;20123;-65
2021/07/17 01:15:00;;;;;;;4.85;2.63;;;;;;;17.90;71.10;97211.97;5012574;28;20061;-65
2021/07/17 01:17:26;;;;;;;7.28;3.00;;;;;;;17.70;71.54;97210.63;5012762;28;20126;-64
2021/07/17 01:19:52;;;;;;;6.47;2.80;;;;;;;17.72;71.63;97206.72;5013743;28;20030;-64
2021/07/17 01:22:18;;;;;;;5.47;2.95;;;;;;;17.78;71.50;97202.47;5013927;28;20030;-64
2021/07/17 01:24:44;;;;;;;4.55;2.92;;;;;;;17.82;71.27;97202.97;5013571;28;20401;-64
2021/07/17 01:27:17;;;;;;;7.43;3.38;;;;;;;17.80;71.55;97195.00;5013738;28;20100;-64
2021/07/17 01:29:47;;;;;;;5.57;3.20;;;;;;;17.84;71.41;97195.50;5012237;28;20034;-64
2021/07/17 01:32:13;;;;;;;7.15;3.35;;;;;;;17.86;71.00;97185.28;5012446;28;20026;-64
2021/07/17 01:34:38;;;;;;;7.28;3.70;;;;;;;17.83;71.22;97186.47;5009472;28;20538;-63
2021/07/17 01:37:04;;;;;;;6.28;3.40;;;;;;;17.81;71.83;97188.53;5012869;28;20104;-63
2021/07/17 01:39:30;;;;;;;4.80;3.47;;;;;;;17.85;71.80;97181.72;5012119;28;20117;-63
2021/07/17 01:41:55;;;;;;;4.93;3.22;;;;;;;17.87;72.07;97184.25;5012462;28;20057;-64
2021/07/17 01:44:20;;;;;;;7.10;3.22;;;;;;;17.85;71.44;97173.56;5013807;28;20105;-63
2021/07/17 01:46:46;;;;;;;6.57;3.10;;;;;;;17.84;71.70;97180.03;5017469;28;20029;-64
2021/07/17 01:49:12;;;;;;;7.60;3.30;;;;;;;17.90;71.53;97178.47;5017778;28;20030;-61
2021/07/17 01:51:37;;;;;;;5.50;3.15;;;;;;;17.84;71.56;97181.91;5017354;28;20458;-62
2021/07/17 01:54:03;;;;;;;4.72;2.90;;;;;;;17.77;71.50;97176.31;5016546;28;20117;-61
2021/07/17 01:56:29;;;;;;;6.32;2.75;;;;;;;17.77;71.56;97179.03;5016008;28;20092;-61
2021/07/17 01:58:55;;;;;;;5.00;2.95;;;;;;;17.82;71.35;97178.50;5015176;28;20030;-61
2021/07/17 02:01:24;;;;;;;4.95;2.80;;;;;;;17.81;71.55;97174.94;5014681;28;20026;-62
2021/07/17 02:03:50;;;;;;;5.20;2.67;;;;;;;17.87;71.31;97168.78;5014483;28;20389;-62
2021/07/17 02:06:26;;;;;;;4.72;2.75;;;;;;;17.84;71.13;97169.13;5015759;28;20025;-64
2021/07/17 02:08:52;;;;;;;5.30;2.90;;;;;;;17.96;70.64;97175.09;5017214;28;20466;-64
2021/07/17 02:11:18;;;;;;;6.38;3.10;;;;;;;17.89;70.85;97172.19;5015850;28;20032;-64
2021/07/17 02:13:54;;;;;;;7.63;3.15;;;;;;;17.69;71.96;97165.41;5016982;28;20097;-64
2021/07/17 02:16:21;;;;;;;6.97;3.03;;;;;;;17.77;71.80;97173.59;5016903;28;20159;-64
2021/07/17 02:18:47;;;;;;;6.10;3.00;;;;;;;17.73;71.70;97173.06;5015835;28;20037;-65
2021/07/17 02:21:14;;;;;;;5.72;2.97;;;;;;;17.60;71.97;97171.88;5016991;28;20030;-64
2021/07/17 02:23:40;;;;;;;4.55;2.83;;;;;;;17.58;72.36;97169.34;5016813;28;20080;-64
2021/07/17 02:26:06;;;;;;;6.63;3.00;;;;;;;17.61;72.26;97165.44;5015518;28;20030;-64
2021/07/17 02:28:31;;;;;;;7.70;2.72;;;;;;;17.53;72.79;97169.88;5017092;28;20100;-64
2021/07/17 02:30:57;;;;;;;3.85;2.50;;;;;;;17.54;72.97;97168.00;5015384;28;20466;-64
2021/07/17 02:33:22;;;;;;;5.13;2.67;;;;;;;17.49;73.15;97154.06;5015473;28;20390;-64
2021/07/17 02:35:48;;;;;;;4.88;2.88;;;;;;;17.31;73.75;97159.69;5015377;28;20034;-64
2021/07/17 02:38:14;;;;;;;8.93;2.92;;;;;;;17.23;74.05;97155.09;5016578;28;20065;-64
2021/07/17 02:40:39;;;;;;;5.03;2.80;;;;;;;17.23;74.00;97155.94;5016699;28;20453;-64
2021/07/17 02:43:04;;;;;;;3.88;2.70;;;;;;;17.44;73.48;97153.72;5015436;28;20029;-64
2021/07/17 02:45:30;;;;;;;4.65;2.72;;;;;;;17.27;74.06;97159.19;5015531;28;20022;-64
2021/07/17 02:47:55;;;;;;;5.50;2.50;;;;;;;17.17;74.44;97162.06;5015448;28;20030;-64
2021/07/17 02:50:21;;;;;;;4.45;2.63;;;;;;;17.26;74.18;97154.75;5016701;28;20509;-64
2021/07/17 02:52:46;;;;;;;5.15;3.00;;;;;;;17.37;73.56;97159.84;5016620;28;20068;-64
2021/07/17 02:55:12;;;;;;;4.03;2.78;;;;;;;17.56;72.77;97150.47;5015983;28;20445;-64
2021/07/17 02:57:38;;;;;;;7.28;3.15;;;;;;;17.65;72.50;97151.34;5014829;28;20046;-64
2021/07/17 03:00:07;;;;;;;5.43;3.08;;;;;;;17.50;72.93;97148.44;5014835;28;20451;-64
2021/07/17 03:02:32;;;;;;;4.95;2.88;;;;;;;17.49;73.09;97145.91;5015188;28;20018;-64
2021/07/17 03:04:58;;;;;;;5.07;2.65;;;;;;;17.44;73.86;97143.72;5014602;28;20379;-64
2021/07/17 03:07:23;;;;;;;5.53;2.97;;;;;;;17.51;73.23;97136.56;5016296;28;20029;-65
2021/07/17 03:09:48;;;;;;;6.07;2.80;;;;;;;17.67;73.04;97145.72;5016421;28;20037;-65
2021/07/17 03:12:14;;;;;;;3.97;2.72;;;;;;;17.68;73.01;97136.53;5015943;28;20108;-64
2021/07/17 03:14:39;;;;;;;7.00;3.03;;;;;;;17.67;72.93;97140.28;5015877;28;20030;-64
2021/07/17 03:17:05;;;;;;;3.95;2.60;;;;;;;17.52;73.42;97132.81;5016121;28;20026;-64
2021/07/17 03:19:30;;;;;;;4.95;2.90;;;;;;;17.49;73.71;97133.19;5016048;28;20477;-64
2021/07/17 03:21:56;;;;;;;5.68;3.03;;;;;;;17.40;74.49;97124.16;5015972;28;20030;-64
2021/07/17 03:24:21;;;;;;;7.13;3.20;;;;;;;17.30;74.76;97123.50;5016256;28;20037;-65
2021/07/17 03:26:47;;;;;;;4.32;2.80;;;;;;;17.15;75.57;97128.78;5016252;28;20037;-64
2021/07/17 03:29:12;;;;;;;5.22;2.90;;;;;;;17.05;75.78;97119.97;5014372;28;20034;-64
2021/07/17 03:31:38;;;;;;;7.03;3.15;;;;;;;17.11;75.35;97113.00;5015846;28;20032;-65
2021/07/17 03:34:03;;;;;;;5.85;2.97;;;;;;;17.10;75.49;97116.72;5014562;28;20036;-64
2021/07/17 03:36:29;;;;;;;5.57;3.03;;;;;;;17.07;75.85;97112.47;5014627;28;20459;-64
2021/07/17 03:38:54;;;;;;;6.72;3.67;;;;;;;17.11;76.57;97113.84;5015833;28;20104;-64
2021/07/17 03:41:20;;;;;;;5.90;3.30;;;;;;;17.20;75.89;97101.94;5014143;28;20101;-64
2021/07/17 03:43:46;;;;;;;4.68;3.15;;;;;;;17.09;76.40;97106.88;5015585;28;20500;-64
2021/07/17 03:46:13;;;;;;;6.13;3.10;;;;;;;16.95;76.79;97106.53;5014117;28;20030;-64
2021/07/17 03:48:38;;;;;;;4.95;3.05;;;;;;;16.98;76.72;97102.63;5014709;28;20061;-64
2021/07/17 03:51:05;;;;;;;6.85;3.28;;;;;;;17.02;76.83;97104.84;5015644;28;20065;-64
2021/07/17 03:53:30;;;;;;;4.93;3.10;;;;;;;17.09;76.65;97096.00;5014349;28;20117;-64
2021/07/17 03:55:55;;;;;;;6.63;3.15;;;;;;;17.01;76.60;97091.41;5015239;28;20385;-64
2021/07/17 03:58:22;;;;;;;6.90;3.50;;;;;;;16.91;77.34;97097.03;5015701;28;20030;-64
2021/07/17 04:00:48;;;;;;;6.30;3.50;;;;;;;16.89;77.33;97094.47;5013881;28;20480;-65
2021/07/17 04:03:13;;;;;;;7.63;3.72;;;;;;;17.00;76.95;97089.75;5014979;28;20057;-66
2021/07/17 04:05:38;;;;;;;4.15;3.17;;;;;;;16.90;77.42;97092.59;5009954;28;20026;-66
2021/07/17 04:08:04;;;;;;;7.85;3.58;;;;;;;16.92;77.01;97100.59;5013126;28;20030;-66
2021/07/17 04:10:29;;;;;;;4.97;3.35;;;;;;;16.96;77.36;97089.22;5012832;28;20034;-64
2021/07/17 04:12:55;;;;;;;8.55;3.28;;;;;;;16.95;77.21;97086.69;5012671;28;20474;-65
2021/07/17 04:15:21;;;;;;;6.13;3.28;;;;;;;16.69;78.21;97084.94;5014804;28;20446;-65
2021/07/17 04:17:46;;;;;;;5.53;3.17;;;;;;;16.72;78.22;97090.03;5014557;28;20034;-65
2021/07/17 04:20:12;;;;;;;9.10;3.20;;;;;;;16.69;78.18;97093.94;5014102;28;20500;-65
2021/07/17 04:22:37;;;;;;;5.63;3.60;;;;;;;16.64;78.78;97087.31;5013966;28;20478;-64
2021/07/17 04:25:04;;;;;;;6.50;3.05;;;;;;;16.84;76.87;97087.84;5014336;28;20028;-65
2021/07/17 04:27:30;;;;;;;4.65;2.40;;;;;;;17.16;75.33;97080.72;5014148;28;20030;-64
2021/07/17 04:29:55;;;;;;;5.00;2.92;;;;;;;17.02;76.68;97076.81;5013995;28;20418;-65
2021/07/17 04:32:21;;;;;;;5.90;3.20;;;;;;;16.82;77.39;97081.72;5013885;28;20022;-65
2021/07/17 04:34:46;;;;;;;6.82;3.38;;;;;;;16.80;77.97;97075.63;5013038;28;20034;-64
2021/07/17 04:37:19;;;;;;;4.78;2.97;;;;;;;16.81;77.28;97082.72;5012824;28;20466;-65
2021/07/17 04:39:48;;;;;;;6.40;2.90;;;;;;;17.02;76.35;97082.25;5013933;28;20026;-65
2021/07/17 04:42:13;;;;;;;6.85;2.70;;;;;;;17.00;76.24;97081.59;5014163;28;20029;-64
2021/07/17 04:44:39;;;;;;;5.22;2.72;;;;;;;17.00;76.71;97078.88;5012618;28;20389;-65
2021/07/17 04:47:04;;;;;;;6.72;3.20;;;;;;;17.01;77.09;97077.81;5013917;28;20483;-65
2021/07/17 04:49:30;;;;;;;4.63;2.63;;;;;;;16.95;76.51;97070.38;5012306;28;20061;-64
2021/07/17 04:51:55;;;;;;;4.30;2.45;;;;;;;16.88;77.54;97068.28;5011427;28;20223;-65
2021/07/17 04:54:20;;;;;;;5.90;2.90;;;;;;;16.92;77.37;97057.16;5014083;28;20470;-66
2021/07/17 04:56:46;;;;;;;4.70;2.70;;;;;;;16.89;77.28;97064.59;5014055;28;20046;-65
2021/07/17 04:59:11;;;;;;;8.30;2.78;;;;;;;16.87;77.42;97063.03;5013987;28;20029;-63
2021/07/17 05:01:36;;;;;;;8.45;2.97;;;;;;;16.82;77.80;97062.69;5012814;28;20029;-65
2021/07/17 05:04:02;;;;;;;6.07;2.90;;;;;;;16.81;77.40;97061.00;5012991;28;20537;-66
2021/07/17 05:06:27;;;;;;;4.50;2.50;;;;;;;17.02;76.21;97060.50;5014121;28;20030;-67
2021/07/17 05:08:53;;;;;;;3.97;2.55;;;;;;;17.17;74.96;97055.22;5012089;28;20022;-66
2021/07/17 05:11:18;;;;;;;3.50;2.20;;;;;;;17.29;74.32;97053.00;5012192;28;20026;-66
2021/07/17 05:13:43;;;;;;;4.72;2.20;;;;;;;17.45;72.55;97055.69;5010967;28;20032;-66
2021/07/17 05:16:09;;;;;;;5.50;2.20;;;;;;;17.46;72.45;97051.94;5012217;28;20056;-66
2021/07/17 05:18:34;;;;;;;3.80;2.38;;;;;;;17.40;74.23;97041.78;4994054;28;20061;-65
2021/07/17 05:21:00;;;;;;;6.57;2.90;;;;;;;17.40;74.81;97041.78;5010124;28;20037;-65
2021/07/17 05:23:25;;;;;;;3.35;2.40;;;;;;;17.32;74.72;97039.91;5010518;28;20030;-65
2021/07/17 05:25:51;;;;;;;2.88;2.15;;;;;;;17.32;74.11;97036.38;5011914;28;20025;-66
2021/07/17 05:28:17;;;;;;;7.97;2.60;;;;;;;17.34;74.88;97037.03;4994407;28;20406;-65
2021/07/17 05:30:43;;;;;;;5.05;2.60;;;;;;;17.33;75.13;97033.47;5012111;28;20030;-65
2021/07/17 05:33:10;;;;;;;5.60;2.70;;;;;;;17.47;73.99;97026.44;5005159;28;20030;-65
2021/07/17 05:35:35;;;;;;;3.85;2.47;;;;;;;17.46;74.81;97029.34;5009286;28;20038;-65
2021/07/17 05:38:01;;;;;;;5.63;2.70;;;;;;;17.54;73.98;97032.03;5009632;28;20022;-64
2021/07/17 05:40:26;;;;;;;6.95;2.83;;;;;;;17.56;74.07;97030.00;5011167;28;20025;-65
2021/07/17 05:42:52;;;;;;;6.82;2.80;;;;;;;17.69;74.04;97034.88;5009797;28;20028;-66
2021/07/17 05:45:17;;;;;;;7.32;2.60;;;;;;;17.93;73.47;97024.94;5012093;28;20121;-64
2021/07/17 05:47:43;;;;;;;5.50;2.40;;;;;;;18.15;71.38;97029.59;5028285;28;20418;-63
2021/07/17 05:50:09;;;;;;;3.67;2.40;;;;;;;18.35;71.18;97031.84;5030545;28;20030;-64
2021/07/17 05:52:34;;;;;;;5.65;2.47;;;;;;;18.44;70.68;97017.16;5011852;28;20034;-64
2021/07/17 05:55:00;;;;;;;3.80;2.40;;;;;;;18.60;69.77;97020.78;5012106;28;20030;-64
2021/07/17 05:57:25;;;;;;;5.50;2.63;;;;;;;18.66;69.79;97020.88;5010394;28;20477;-65
2021/07/17 05:59:50;;;;;;;3.90;2.28;;;;;;;18.81;68.82;97018.22;5011587;28;20034;-64
2021/07/17 06:02:17;;;;;;;3.28;2.25;;;;;;;18.86;68.57;97014.94;5010574;28;20446;-64
2021/07/17 06:04:43;;;;;;;5.43;2.42;;;;;;;18.97;68.29;97019.13;5010479;28;20048;-64
2021/07/17 06:07:09;;;;;;;5.55;2.28;;;;;;;19.00;68.19;97013.31;5010203;28;20479;-65
2021/07/17 06:09:34;;;;;;;6.05;2.30;;;;;;;18.94;68.62;97014.06;5008818;28;20033;-64
2021/07/17 06:11:59;;;;;;;5.35;2.40;;;;;;;18.90;68.73;97021.75;5011285;28;20037;-64
2021/07/17 06:14:25;;;;;;;2.63;2.00;;;;;;;18.97;68.11;97005.50;5011637;28;20030;-65
2021/07/17 06:16:50;;;;;;;4.97;1.92;;;;;;;19.03;67.89;97005.63;5009732;28;20030;-64
2021/07/17 06:19:16;;;;;;;6.13;2.20;;;;;;;18.96;68.82;97004.69;5011588;28;20033;-63
2021/07/17 06:21:41;;;;;;;5.35;2.42;;;;;;;18.97;68.82;97009.06;5011835;28;20022;-65
2021/07/17 06:24:06;;;;;;;5.28;2.20;;;;;;;19.05;68.75;97005.44;5009889;28;20046;-72
2021/07/17 06:26:32;;;;;;;5.95;2.10;;;;;;;19.03;67.68;97010.22;5010707;28;20037;-66
2021/07/17 06:28:57;;;;;;;2.47;1.90;;;;;;;19.19;66.20;97006.50;5011271;28;20109;-65
2021/07/17 06:31:23;;;;;;;4.07;2.03;;;;;;;19.30;65.96;97007.91;5012669;28;20168;-64
2021/07/17 06:33:48;;;;;;;8.32;2.05;;;;;;;19.33;64.41;97008.38;5013976;28;20482;-64
2021/07/17 06:36:15;;;;;;;3.72;1.60;;;;;;;19.36;64.20;97015.31;5014277;28;20455;-64
2021/07/17 06:38:41;;;;;;;2.58;1.90;;;;;;;19.38;66.09;97016.00;5013314;28;20018;-66
2021/07/17 06:41:07;;;;;;;7.35;2.00;;;;;;;19.42;66.66;97016.47;5013983;28;20026;-65
2021/07/17 06:43:33;;;;;;;3.08;2.00;;;;;;;19.63;66.21;97015.72;5013110;28;20030;-65
2021/07/17 06:45:58;;;;;;;3.95;1.92;;;;;;;19.82;65.50;97017.06;5013207;28;20026;-65
2021/07/17 06:48:24;;;;;;;2.85;1.88;;;;;;;19.94;64.96;97023.72;5013771;28;20043;-65
2021/07/17 06:50:49;;;;;;;2.75;1.77;;;;;;;20.06;63.56;97013.16;5014294;28;20646;-66
2021/07/17 06:53:15;;;;;;;3.60;1.65;;;;;;;20.17;60.34;97014.53;5013696;28;20044;-66
2021/07/17 06:55:41;;;;;;;2.30;1.70;;;;;;;20.28;60.46;97013.19;5012417;28;20026;-66
2021/07/17 06:58:06;;;;;;;3.20;1.85;;;;;;;20.43;61.67;97014.00;5013002;28;20026;-65
2021/07/17 07:00:34;;;;;;;4.85;1.85;;;;;;;20.69;62.09;97007.13;4996679;28;20037;-65
2021/07/17 07:03:00;;;;;;;8.30;1.92;;;;;;;20.93;61.32;97010.50;5010126;28;20053;-65
2021/07/17 07:05:25;;;;;;;3.80;1.88;;;;;;;21.09;60.97;97010.19;5012964;28;20034;-65
2021/07/17 07:07:51;;;;;;;4.10;1.60;;;;;;;21.00;59.09;97006.75;5013784;28;20475;-65
2021/07/17 07:10:17;;;;;;;2.08;1.60;;;;;;;21.14;57.16;97017.78;5014230;28;20022;-65
2021/07/17 07:12:42;;;;;;;5.20;1.73;;;;;;;21.20;57.99;97019.75;5013358;28;20482;-66
2021/07/17 07:15:09;;;;;;;4.85;1.90;;;;;;;21.29;59.04;97023.19;5013859;28;20022;-65
2021/07/17 07:17:35;;;;;;;4.88;1.90;;;;;;;21.50;59.14;97025.84;4995645;28;20068;-65
2021/07/17 07:20:00;;;;;;;3.53;1.70;;;;;;;21.64;58.59;97028.69;5013688;28;20422;-65
2021/07/17 07:22:26;;;;;;;2.72;1.70;;;;;;;21.69;59.10;97028.94;5014073;28;20105;-65
2021/07/17 07:24:51;;;;;;;2.42;1.80;;;;;;;21.69;59.28;97026.22;5013476;28;20474;-64
2021/07/17 07:27:17;;;;;;;2.90;2.00;;;;;;;21.71;58.86;97035.03;5013884;28;20072;-60
2021/07/17 07:29:42;;;;;;;4.25;1.52;;;;;;;21.78;58.13;97024.13;5012546;28;20026;-61
2021/07/17 07:32:07;;;;;;;2.10;1.63;;;;;;;21.81;57.89;97027.31;5013403;28;20022;-62
2021/07/17 07:34:33;;;;;;;2.88;1.73;;;;;;;21.95;57.96;97030.97;5013474;28;20030;-62
2021/07/17 07:36:58;;;;;;;2.08;1.50;;;;;;;21.86;58.08;97026.69;5015182;28;20033;-62
2021/07/17 07:39:24;;;;;;;3.85;1.80;;;;;;;21.82;57.88;97022.69;5014880;28;20367;-62
2021/07/17 07:41:49;;;;;;;5.18;1.65;;;;;;;22.10;55.88;97028.09;5012753;28;20080;-60
2021/07/17 07:44:14;;;;;;;3.22;1.58;;;;;;;22.32;56.30;97036.19;5014113;28;20057;-60
2021/07/17 07:46:40;;;;;;;3.72;1.92;;;;;;;22.44;58.05;97031.81;5014694;28;20021;-61
2021/07/17 07:49:06;;;;;;;3.10;2.10;;;;;;;22.40;59.20;97025.88;5016017;28;20091;-61
2021/07/17 07:51:34;;;;;;;4.80;2.10;;;;;;;22.29;59.77;97025.59;5015632;28;20478;-60
2021/07/17 07:53:59;;;;;;;6.40;2.42;;;;;;;22.28;60.80;97016.56;5011846;28;20378;-61
2021/07/17 07:56:25;;;;;;;3.40;2.30;;;;;;;22.19;60.94;97015.06;5007023;28;20505;-61
2021/07/17 07:58:50;;;;;;;4.70;2.50;;;;;;;22.08;62.07;97016.50;5010542;28;20025;-60
2021/07/17 08:01:15;;;;;;;3.25;2.30;;;;;;;21.98;61.82;97016.88;5011953;28;20536;-60
2021/07/17 08:03:41;;;;;;;6.80;2.38;;;;;;;22.02;62.03;97018.16;5011250;28;20501;-61
2021/07/17 08:06:07;;;;;;;5.35;2.55;;;;;;;22.07;62.77;97036.69;5010777;28;20053;-60
2021/07/17 08:08:33;;;;;;;4.47;2.60;;;;;;;22.40;60.88;97027.78;5012750;28;20033;-59
2021/07/17 08:10:59;;;;;;;6.60;2.97;;;;;;;22.52;62.12;97033.53;5012558;28;20483;-62
2021/07/17 08:13:25;;;;;;;12.32;3.10;;;;;;;22.69;61.37;97043.03;5016280;28;20034;-63
2021/07/17 08:15:50;;;;;;;8.18;3.00;;;;;;;22.67;61.76;97036.91;5013989;28;20418;-63
2021/07/17 08:18:16;;;;;;;6.15;2.95;;;;;;;22.57;61.56;97036.50;5011499;28;20034;-63
2021/07/17 08:20:42;;;;;;;6.25;2.90;;;;;;;22.68;60.78;97035.88;5013088;28;20029;-62
2021/07/17 08:23:07;;;;;;;6.57;2.70;;;;;;;22.67;61.46;97033.34;5013102;28;20034;-63
2021/07/17 08:25:33;;;;;;;6.70;3.22;;;;;;;22.74;61.17;97028.69;5012556;28;20042;-62
2021/07/17 08:27:58;;;;;;;6.57;3.10;;;;;;;22.81;60.42;97029.56;5011166;28;20040;-62
2021/07/17 08:30:23;;;;;;;6.35;2.78;;;;;;;22.90;58.75;97030.19;5014223;28;20033;-63
2021/07/17 08:32:50;;;;;;;6.47;3.22;;;;;;;22.88;59.54;97030.41;4996108;28;20109;-63
2021/07/17 08:35:15;;;;;;;4.82;2.70;;;;;;;23.01;59.45;97028.72;5015507;28;20117;-62
2021/07/17 08:37:41;;;;;;;6.03;2.88;;;;;;;22.70;59.26;97022.81;5011516;28;20168;-63
2021/07/17 08:40:07;;;;;;;6.07;2.60;;;;;;;22.78;58.98;97024.47;5011105;28;20041;-63
2021/07/17 08:42:36;;;;;;;8.00;2.70;;;;;;;22.87;59.05;97023.22;5011526;28;20025;-62
2021/07/17 08:45:05;;;;;;;6.00;2.80;;;;;;;23.09;58.70;97023.06;5011492;28;20029;-62
2021/07/17 08:47:35;;;;;;;4.60;2.60;;;;;;;23.29;57.70;97025.81;4995409;28;20026;-62
2021/07/17 08:50:02;;;;;;;7.68;2.88;;;;;;;23.51;58.28;97020.09;5011991;28;20025;-62
2021/07/17 08:52:29;;;;;;;6.80;2.60;;;;;;;23.62;57.62;97030.41;5011854;28;20034;-62
2021/07/17 08:55:02;;;;;;;7.53;2.70;;;;;;;23.46;57.37;97017.97;5013404;28;20018;-61
2021/07/17 08:57:28;;;;;;;6.43;2.70;;;;;;;23.68;56.52;97025.97;5008824;28;20108;-61
2021/07/17 08:59:53;;;;;;;4.78;2.60;;;;;;;23.68;55.53;97028.72;5012495;28;20053;-62
2021/07/17 09:02:19;;;;;;;4.28;2.30;;;;;;;23.75;55.40;97026.78;5012159;28;20041;-62
2021/07/17 09:04:44;;;;;;;6.10;2.60;;;;;;;23.89;55.28;97022.97;5011485;28;20034;-62
2021/07/17 09:07:10;;;;;;;5.68;2.55;;;;;;;23.76;55.74;97028.47;5010943;28;20116;-61
2021/07/17 09:09:38;;;;;;;6.40;2.30;;;;;;;23.89;53.58;97025.72;4996374;28;20477;-61
2021/07/17 09:12:21;;;;;;;4.63;2.42;;;;;;;24.07;54.20;97025.00;5012972;28;20022;-62
2021/07/17 09:14:46;;;;;;;7.47;2.50;;;;;;;24.27;54.75;97026.00;5045151;28;21269;-61
2021/07/17 09:17:27;;;;;;;6.65;2.60;;;;;;;24.19;54.40;97022.44;5045642;28;20030;-62
2021/07/17 09:19:55;;;;;;;8.73;3.15;;;;;;;24.38;54.69;97026.13;5012407;28;20059;-61
2021/07/17 09:22:32;;;;;;;6.10;2.90;;;;;;;24.49;55.05;97013.63;5012013;28;20637;-61
2021/07/17 09:25:12;;;;;;;6.93;2.83;;;;;;;24.54;54.41;97012.94;5010206;28;20037;-61
2021/07/17 09:27:37;;;;;;;9.02;2.70;;;;;;;24.64;54.49;97015.25;5011861;28;20048;-61
2021/07/17 09:30:04;;;;;;;7.70;2.50;;;;;;;24.72;53.86;97006.75;5012242;28;20021;-62
2021/07/17 09:32:30;;;;;;;6.05;2.53;;;;;;;24.71;54.63;96999.56;5012224;28;20112;-61
2021/07/17 09:35:11;;;;;;;6.50;2.35;;;;;;;24.83;52.62;97002.44;5009009;28;20027;-61
2021/07/17 09:37:37;;;;;;;6.03;2.40;;;;;;;24.88;52.51;96999.84;5009845;28;20056;-61
2021/07/17 09:40:08;;;;;;;5.28;2.38;;;;;;;24.84;51.54;96998.59;5011484;28;20076;-60
2021/07/17 09:42:42;;;;;;;5.85;2.13;;;;;;;24.86;52.59;96991.81;5010224;28;20041;-61
2021/07/17 09:45:08;;;;;;;3.30;2.28;;;;;;;24.93;52.44;96997.25;5042975;28;20026;-61
2021/07/17 09:47:33;;;;;;;6.10;2.75;;;;;;;25.11;52.59;96992.88;5013803;28;20104;-61
2021/07/17 09:50:32;;;;;;;6.72;2.63;;;;;;;25.16;52.63;96991.16;5009689;28;20025;-62
2021/07/17 09:52:59;;;;;;;5.70;2.50;;;;;;;25.22;52.16;96984.75;5029979;28;20498;-62
2021/07/17 09:55:24;;;;;;;5.57;2.40;;;;;;;25.09;51.58;96984.88;4994439;28;20367;-61
2021/07/17 09:57:50;;;;;;;6.90;2.65;;;;;;;25.02;52.18;96981.34;5009778;28;20053;-61
2021/07/17 10:00:19;;;;;;;3.67;1.80;;;;;;;25.03;48.67;96986.63;5013436;28;20557;-61
2021/07/17 10:02:45;;;;;;;6.50;1.95;;;;;;;25.20;48.79;96986.03;5024885;28;20030;-61
2021/07/17 10:05:15;;;;;;;5.50;2.10;;;;;;;25.48;48.87;96982.84;5012996;28;20053;-61
2021/07/17 10:07:40;;;;;;;4.78;2.22;;;;;;;25.54;49.86;96981.91;5018249;28;20029;-61
2021/07/17 10:10:06;;;;;;;3.97;1.90;;;;;;;25.50;49.37;96974.38;5000517;28;20556;-60
2021/07/17 10:12:33;;;;;;;8.48;2.22;;;;;;;25.76;48.55;96977.88;5014442;28;20076;-59
2021/07/17 10:14:59;;;;;;;3.15;1.70;;;;;;;25.66;44.66;96967.41;5014988;28;20053;-59
2021/07/17 10:17:36;;;;;;;5.95;2.00;;;;;;;25.81;46.66;96965.09;5019080;28;20553;-61
2021/07/17 10:20:04;;;;;;;5.82;1.90;;;;;;;25.81;44.62;96964.28;5015556;28;20026;-59
2021/07/17 10:22:30;;;;;;;4.60;2.47;;;;;;;25.95;45.38;96949.25;5048477;28;20036;-59
2021/07/17 10:24:56;;;;;;;3.85;1.60;;;;;;;25.99;45.24;96953.25;5018172;28;20034;-60
2021/07/17 10:27:22;;;;;;;5.13;1.80;;;;;;;26.15;45.25;96959.19;5016518;28;20397;-60
2021/07/17 10:29:50;;;;;;;3.17;1.70;;;;;;;26.30;44.67;96953.28;5017953;28;20030;-61
2021/07/17 10:32:15;;;;;;;3.17;1.50;;;;;;;26.37;44.13;96959.53;5018074;28;20394;-60
2021/07/17 10:34:41;;;;;;;3.03;1.67;;;;;;;26.40;43.21;96950.78;5015904;28;20026;-59
2021/07/17 10:37:20;;;;;;;7.68;2.15;;;;;;;26.50;43.22;96945.56;5018492;28;20386;-59
2021/07/17 10:39:57;;;;;;;4.60;1.85;;;;;;;26.35;42.90;96947.91;5045343;28;20034;-59
2021/07/17 10:42:23;;;;;;;3.95;1.60;;;;;;;26.57;43.03;96945.47;5015923;28;20022;-59
2021/07/17 10:44:51;;;;;;;5.72;2.03;;;;;;;26.78;42.93;96944.09;5014504;28;20040;-59
2021/07/17 10:47:17;;;;;;;3.78;1.92;;;;;;;27.09;43.06;96944.84;5015026;28;20073;-59
2021/07/17 10:49:47;;;;;;;3.45;1.73;;;;;;;27.25;43.34;96942.47;5015719;28;20022;-58
2021/07/17 10:52:12;;;;;;;6.10;2.25;;;;;;;27.45;43.21;96936.63;5026112;28;20100;-59
2021/07/17 10:54:38;;;;;;;11.15;2.38;;;;;;;27.45;43.38;96931.91;5020701;28;20040;-59
2021/07/17 10:57:05;;;;;;;5.25;1.95;;;;;;;27.52;41.90;96935.38;5014698;28;20065;-59
2021/07/17 10:59:30;;;;;;;2.80;1.60;;;;;;;27.53;41.86;96934.31;4998128;28;20084;-58
2021/07/17 11:02:02;;;;;;;2.42;1.63;;;;;;;27.65;38.20;96933.47;5011597;28;20033;-57
2021/07/17 11:04:44;;;;;;;3.15;1.60;;;;;;;27.50;38.71;96922.91;5013148;28;20034;-59
2021/07/17 11:07:18;;;;;;;5.10;1.60;;;;;;;27.96;39.68;96923.88;5009119;28;20045;-60
2021/07/17 11:09:57;;;;;;;2.85;1.50;;;;;;;28.20;38.82;96918.31;5013835;28;20030;-60
2021/07/17 11:12:28;;;;;;;1.50;1.40;;;;;;;28.23;36.38;96915.03;5014503;28;20032;-59
2021/07/17 11:14:54;;;;;;;2.00;1.60;;;;;;;28.27;34.80;96907.09;5013607;28;20088;-60
2021/07/17 11:17:42;;;;;;;2.15;1.48;;;;;;;28.31;31.96;96913.81;5013774;28;20025;-59
2021/07/17 11:20:34;;;;;;;1.35;1.25;;;;;;;28.20;31.86;96908.06;5046214;28;20024;-58
2021/07/17 11:23:14;;;;;;;4.55;1.85;;;;;;;28.36;33.13;96917.50;5013912;28;20044;-60
2021/07/17 11:25:54;;;;;;;3.00;1.50;;;;;;;28.23;32.55;96924.19;5012422;28;20482;-62
2021/07/17 11:28:44;;;;;;;2.50;1.50;;;;;;;28.40;33.01;96912.31;5015004;28;20053;-63
2021/07/17 11:31:27;;;;;;;2.53;1.33;;;;;;;28.20;33.86;96910.00;5010811;28;20107;-62
2021/07/17 11:34:17;;;;;;;1.20;1.20;;;;;;;28.65;31.39;96919.41;5013008;28;20362;-62